Time;durP1;ratioP1;P1;durP2;ratioP2;P2;SDS_P1;SDS_P2;PMS_P1;PMS_P2;Temp;Humidity;BMP_temperature;BMP_pressure;BME280_temperature;BME280_humidity;BME280_pressure;Samples;Min_cycle;Max_cycle;Signal;HPM_P1;HPM_P2
2023/03/20 00:01:23;;;;;;;34.17;19.17;;;10.70;99.90;;;;;;4955068;28;20466;-81
2023/03/20 00:03:50;;;;;;;39.13;18.75;;;10.60;99.90;;;;;;4955089;28;20080;-82
2023/03/20 00:06:30;;;;;;;35.13;18.88;;;10.50;99.90;;;;;;4946228;28;20459;-81
2023/03/20 00:08:56;;;;;;;43.67;19.17;;;10.50;99.90;;;;;;4958246;28;20402;-81
2023/03/20 00:11:33;;;;;;;40.00;19.45;;;10.60;99.90;;;;;;4954195;28;20022;-81
2023/03/20 00:14:00;;;;;;;36.38;19.45;;;10.70;99.90;;;;;;4940036;28;20035;-81
2023/03/20 00:16:37;;;;;;;38.80;19.30;;;10.70;99.90;;;;;;4956306;28;20036;-81
2023/03/20 00:19:05;;;;;;;38.10;19.38;;;10.70;99.90;;;;;;4955781;28;20395;-81
2023/03/20 00:21:33;;;;;;;36.33;19.42;;;10.70;99.90;;;;;;4950088;28;20491;-80
2023/03/20 00:23:59;;;;;;;38.72;19.20;;;10.70;99.90;;;;;;4937504;28;20479;-81
2023/03/20 00:26:34;;;;;;;34.42;18.48;;;10.70;99.90;;;;;;4955138;28;20038;-81
2023/03/20 00:29:00;;;;;;;34.30;18.85;;;10.70;99.90;;;;;;4954290;28;20023;-80
2023/03/20 00:31:36;;;;;;;37.80;20.08;;;10.70;99.90;;;;;;4937754;28;20024;-80
2023/03/20 00:34:13;;;;;;;37.90;20.15;;;10.70;99.90;;;;;;4951884;28;20027;-80
2023/03/20 00:36:39;;;;;;;37.28;19.95;;;10.60;99.90;;;;;;4935246;28;20022;-80
2023/03/20 00:39:05;;;;;;;38.75;20.15;;;10.60;99.90;;;;;;4955057;28;20034;-81
2023/03/20 00:41:37;;;;;;;39.40;20.35;;;10.70;99.90;;;;;;4942640;28;20047;-80
2023/03/20 00:44:41;;;;;;;41.00;20.27;;;10.70;99.90;;;;;;4936498;28;20024;-80
2023/03/20 00:47:19;;;;;;;44.15;20.75;;;10.70;99.90;;;;;;5093491;23;20062;-80
2023/03/20 00:49:49;;;;;;;39.78;20.13;;;10.70;99.90;;;;;;4956806;28;20081;-80
2023/03/20 00:52:17;;;;;;;35.15;19.10;;;10.70;99.90;;;;;;4955529;28;20021;-80
2023/03/20 00:54:42;;;;;;;38.97;19.55;;;10.70;99.90;;;;;;4955207;28;20023;-79
2023/03/20 00:57:25;;;;;;;37.45;18.88;;;10.70;99.90;;;;;;4955494;28;20035;-82
2023/03/20 00:59:57;;;;;;;37.80;18.13;;;10.70;99.90;;;;;;4952425;28;20114;-80
2023/03/20 01:02:27;;;;;;;34.85;16.58;;;10.60;99.90;;;;;;4944125;28;20028;-80
2023/03/20 01:04:53;;;;;;;36.10;16.67;;;10.60;99.90;;;;;;4955758;28;20025;-80
2023/03/20 01:07:20;;;;;;;33.90;17.48;;;10.60;99.90;;;;;;4955168;28;20026;-80
2023/03/20 01:09:48;;;;;;;33.70;17.70;;;10.60;99.90;;;;;;4956829;28;20022;-80
2023/03/20 01:12:15;;;;;;;31.20;16.95;;;10.60;99.90;;;;;;4944727;28;20031;-79
2023/03/20 01:14:41;;;;;;;29.92;15.25;;;10.60;99.90;;;;;;4941084;28;20033;-80
2023/03/20 01:17:18;;;;;;;35.13;18.10;;;10.60;99.90;;;;;;4954108;28;20073;-82
2023/03/20 01:19:44;;;;;;;31.83;17.27;;;10.60;99.90;;;;;;4954174;28;20033;-80
2023/03/20 01:22:10;;;;;;;31.75;16.83;;;10.50;99.90;;;;;;4952562;28;20492;-81
2023/03/20 01:24:36;;;;;;;31.15;17.48;;;10.50;99.90;;;;;;4951865;28;20034;-81
2023/03/20 01:27:04;;;;;;;30.88;17.00;;;10.50;99.90;;;;;;4934303;28;20026;-81
2023/03/20 01:29:30;;;;;;;32.92;16.50;;;10.60;99.90;;;;;;4942018;28;20031;-80
2023/03/20 01:31:56;;;;;;;32.63;16.88;;;10.50;99.90;;;;;;4941972;28;20019;-80
2023/03/20 01:34:24;;;;;;;32.65;16.55;;;10.50;99.90;;;;;;4943123;28;20029;-80
2023/03/20 01:36:56;;;;;;;34.38;16.83;;;10.50;99.90;;;;;;4943820;28;20030;-81
2023/03/20 01:39:31;;;;;;;30.35;15.95;;;10.50;99.90;;;;;;4953658;28;20091;-81
2023/03/20 01:41:57;;;;;;;35.33;18.35;;;10.60;99.90;;;;;;4951819;28;20570;-81
2023/03/20 01:44:26;;;;;;;31.52;16.25;;;10.60;99.90;;;;;;4950807;28;20070;-81
2023/03/20 01:46:53;;;;;;;31.88;15.95;;;10.60;99.90;;;;;;4952458;28;20022;-81
2023/03/20 01:49:18;;;;;;;28.13;15.40;;;10.60;99.90;;;;;;4954866;28;20023;-81
2023/03/20 01:51:45;;;;;;;28.60;15.90;;;10.60;99.90;;;;;;4938074;28;20030;-82
2023/03/20 01:54:16;;;;;;;27.80;15.68;;;10.60;99.90;;;;;;4964230;28;20031;-81
2023/03/20 01:56:47;;;;;;;30.00;16.17;;;10.50;99.90;;;;;;4958151;28;20119;-81
2023/03/20 01:59:20;;;;;;;28.70;15.90;;;10.40;99.90;;;;;;4956769;28;20058;-81
2023/03/20 02:01:45;;;;;;;28.60;15.02;;;10.40;99.90;;;;;;4950632;28;20207;-81
2023/03/20 02:04:14;;;;;;;30.13;15.10;;;10.40;99.90;;;;;;4952133;28;20376;-81
2023/03/20 02:06:43;;;;;;;24.77;14.70;;;10.40;99.90;;;;;;4938058;28;20031;-82
2023/03/20 02:09:09;;;;;;;32.25;15.77;;;10.50;99.90;;;;;;4940743;28;20066;-80
2023/03/20 02:11:39;;;;;;;26.42;14.73;;;10.50;99.90;;;;;;4954641;28;20023;-82
2023/03/20 02:14:05;;;;;;;27.02;14.80;;;10.50;99.90;;;;;;4940126;28;20078;-81
2023/03/20 02:16:31;;;;;;;26.42;14.02;;;10.60;99.90;;;;;;4936831;28;20023;-82
2023/03/20 02:18:57;;;;;;;26.52;15.23;;;10.60;99.90;;;;;;4957321;28;20479;-82
2023/03/20 02:21:41;;;;;;;33.22;15.13;;;10.60;99.90;;;;;;4953426;28;20067;-82
2023/03/20 02:24:45;;;;;;;31.35;14.73;;;10.60;99.90;;;;;;4955739;28;20035;-82
2023/03/20 02:27:38;;;;;;;24.00;13.57;;;10.50;99.90;;;;;;4944712;28;20050;-80
2023/03/20 02:30:23;;;;;;;24.10;13.65;;;10.40;99.90;;;;;;4952380;28;20035;-81
2023/03/20 02:33:16;;;;;;;31.50;14.77;;;10.40;99.90;;;;;;4938302;28;20130;-80
2023/03/20 02:35:54;;;;;;;25.08;13.13;;;10.30;99.90;;;;;;4942680;28;20026;-82
2023/03/20 02:38:35;;;;;;;24.38;13.10;;;10.30;99.90;;;;;;4953501;28;20027;-81
2023/03/20 02:41:17;;;;;;;28.05;14.50;;;10.30;99.90;;;;;;4943359;28;20117;-82
2023/03/20 02:44:21;;;;;;;25.87;13.10;;;10.40;99.90;;;;;;4953130;28;20522;-81
2023/03/20 02:47:02;;;;;;;23.70;13.13;;;10.30;99.90;;;;;;4924481;28;20909;-81
2023/03/20 02:49:50;;;;;;;26.48;12.65;;;10.30;99.90;;;;;;4955333;28;20031;-81
2023/03/20 02:52:39;;;;;;;22.42;12.20;;;10.30;99.90;;;;;;4954154;28;20046;-81
2023/03/20 02:55:36;;;;;;;24.70;12.25;;;10.20;99.90;;;;;;4936109;28;20029;-80
2023/03/20 02:58:43;;;;;;;23.08;12.50;;;10.30;99.90;;;;;;4931142;28;20088;-81
2023/03/20 03:01:29;;;;;;;22.92;12.55;;;10.30;99.90;;;;;;4928413;28;20047;-80
2023/03/20 03:04:01;;;;;;;25.38;12.25;;;10.30;99.90;;;;;;4939707;28;20030;-82
2023/03/20 03:06:30;;;;;;;20.95;11.55;;;10.30;99.90;;;;;;4953705;28;20046;-82
2023/03/20 03:09:19;;;;;;;22.90;12.52;;;10.30;99.90;;;;;;4936675;28;20030;-80
2023/03/20 03:11:52;;;;;;;22.98;12.05;;;10.40;99.90;;;;;;4953592;28;20545;-82
2023/03/20 03:14:35;;;;;;;21.63;11.10;;;10.40;99.90;;;;;;4949759;28;20027;-80
2023/03/20 03:17:04;;;;;;;21.95;11.55;;;10.40;99.90;;;;;;4934947;28;20058;-82
2023/03/20 03:19:32;;;;;;;21.58;11.50;;;10.40;99.90;;;;;;4957849;28;20026;-80
2023/03/20 03:22:01;;;;;;;25.35;11.25;;;10.40;99.90;;;;;;4952228;28;20491;-82
2023/03/20 03:24:33;;;;;;;20.15;10.45;;;10.40;99.90;;;;;;4938057;28;20023;-80
2023/03/20 03:27:04;;;;;;;21.35;11.13;;;10.20;99.90;;;;;;4957828;28;20031;-79
2023/03/20 03:29:35;;;;;;;23.60;10.10;;;10.30;99.90;;;;;;4949024;28;20031;-80
2023/03/20 03:32:04;;;;;;;20.15;10.63;;;10.30;99.90;;;;;;4952884;28;20045;-82
2023/03/20 03:34:32;;;;;;;20.55;9.45;;;10.30;99.90;;;;;;5104172;23;20574;-81
2023/03/20 03:37:15;;;;;;;20.65;9.98;;;10.30;99.90;;;;;;4940999;28;20475;-81
2023/03/20 03:40:02;;;;;;;17.52;8.77;;;10.20;99.90;;;;;;4952048;28;20450;-80
2023/03/20 03:42:56;;;;;;;18.13;8.45;;;10.20;99.90;;;;;;4952434;28;20139;-80
2023/03/20 03:45:46;;;;;;;18.98;9.43;;;10.10;99.90;;;;;;4950990;28;20072;-80
2023/03/20 03:48:34;;;;;;;13.95;7.97;;;10.10;99.90;;;;;;4950611;28;20031;-80
2023/03/20 03:51:06;;;;;;;16.45;7.88;;;10.00;99.90;;;;;;4953668;28;20027;-81
2023/03/20 03:53:41;;;;;;;13.52;7.82;;;10.00;99.90;;;;;;4952324;28;20023;-80
2023/03/20 03:56:11;;;;;;;14.95;8.05;;;10.00;99.90;;;;;;4932608;28;20027;-81
2023/03/20 03:58:43;;;;;;;16.30;7.68;;;10.10;99.90;;;;;;4935305;28;20018;-81
2023/03/20 04:01:11;;;;;;;14.80;7.50;;;10.10;99.90;;;;;;4950082;28;20038;-81
2023/03/20 04:03:43;;;;;;;13.00;6.95;;;10.10;99.90;;;;;;4933137;28;20338;-81
2023/03/20 04:06:11;;;;;;;15.55;7.65;;;10.00;99.90;;;;;;4939517;28;20026;-82
2023/03/20 04:08:40;;;;;;;15.98;7.57;;;10.00;99.90;;;;;;4949507;28;20122;-82
2023/03/20 04:13:41;;;;;;;13.27;7.28;;;9.90;99.90;;;;;;5000806;23;20042;-80
2023/03/20 04:16:12;;;;;;;17.88;8.15;;;10.00;99.90;;;;;;4950794;28;20019;-81
2023/03/20 04:18:38;;;;;;;19.65;8.00;;;10.00;99.90;;;;;;4951403;28;20109;-80
2023/03/20 04:21:04;;;;;;;12.63;6.72;;;9.90;99.90;;;;;;4929431;28;20129;-81
2023/03/20 04:23:34;;;;;;;15.15;8.10;;;9.90;99.90;;;;;;4938760;28;20476;-81
2023/03/20 04:26:00;;;;;;;15.85;7.65;;;9.90;99.90;;;;;;4954845;28;20058;-81
2023/03/20 04:28:26;;;;;;;20.60;8.77;;;9.90;99.90;;;;;;4962575;28;20019;-81
2023/03/20 04:30:56;;;;;;;17.30;7.95;;;9.90;99.90;;;;;;4946241;28;20485;-81
2023/03/20 04:33:23;;;;;;;16.25;7.72;;;9.90;99.90;;;;;;4950219;28;20082;-81
2023/03/20 04:35:50;;;;;;;19.00;8.27;;;9.80;99.90;;;;;;4938529;28;20038;-81
2023/03/20 04:38:19;;;;;;;16.33;8.13;;;9.80;99.90;;;;;;4949134;28;20023;-81
2023/03/20 04:40:46;;;;;;;18.02;8.18;;;9.80;99.90;;;;;;4933214;28;20077;-81
2023/03/20 04:43:12;;;;;;;19.20;8.55;;;9.80;99.90;;;;;;4934802;28;20189;-80
2023/03/20 04:45:38;;;;;;;20.23;9.02;;;9.70;99.90;;;;;;4949116;28;20407;-80
2023/03/20 04:48:04;;;;;;;18.40;8.68;;;9.70;99.90;;;;;;4934160;28;20031;-81
2023/03/20 04:50:30;;;;;;;20.60;8.68;;;9.70;99.90;;;;;;4933885;28;20056;-82
2023/03/20 04:52:56;;;;;;;15.60;8.15;;;9.60;99.90;;;;;;4934430;28;20668;-81
2023/03/20 04:55:22;;;;;;;19.40;8.95;;;9.60;99.90;;;;;;4929023;28;20085;-80
2023/03/20 04:57:49;;;;;;;18.13;8.90;;;9.60;99.90;;;;;;4945941;28;20133;-80
2023/03/20 05:00:18;;;;;;;19.08;9.07;;;9.50;99.90;;;;;;4951275;28;20040;-80
2023/03/20 05:02:44;;;;;;;19.40;8.27;;;9.50;99.90;;;;;;4938737;28;20035;-80
2023/03/20 05:05:10;;;;;;;21.85;9.30;;;9.50;99.90;;;;;;4931942;28;20027;-80
2023/03/20 05:07:35;;;;;;;22.58;8.95;;;9.50;99.90;;;;;;4952527;28;20082;-81
2023/03/20 05:10:02;;;;;;;19.77;9.95;;;9.40;99.90;;;;;;4949335;28;20487;-82
2023/03/20 05:12:28;;;;;;;26.10;10.55;;;9.40;99.90;;;;;;4949678;28;20479;-81
2023/03/20 05:14:54;;;;;;;24.15;10.02;;;9.30;99.90;;;;;;4936869;28;20077;-83
2023/03/20 05:17:21;;;;;;;24.33;11.15;;;9.30;99.90;;;;;;4948362;28;20381;-81
2023/03/20 05:19:48;;;;;;;20.33;9.80;;;9.30;99.90;;;;;;4947059;28;20031;-81
2023/03/20 05:22:14;;;;;;;22.80;9.98;;;9.30;99.90;;;;;;4935282;28;20043;-80
2023/03/20 05:24:43;;;;;;;26.63;10.15;;;9.30;99.90;;;;;;4939637;28;20376;-81
2023/03/20 05:27:08;;;;;;;25.05;11.68;;;9.20;99.90;;;;;;4936700;28;20402;-80
2023/03/20 05:29:36;;;;;;;27.80;11.43;;;9.20;99.90;;;;;;4952473;28;20039;-80
2023/03/20 05:32:02;;;;;;;24.38;10.57;;;9.30;99.90;;;;;;4940608;28;20035;-80
2023/03/20 05:34:28;;;;;;;29.58;11.68;;;9.20;99.90;;;;;;4954720;28;20049;-82
2023/03/20 05:36:54;;;;;;;27.60;10.88;;;9.20;99.90;;;;;;4951565;28;20050;-79
2023/03/20 05:39:21;;;;;;;23.77;10.40;;;9.20;99.90;;;;;;4953700;28;20459;-81
2023/03/20 05:41:46;;;;;;;27.67;11.68;;;9.20;99.90;;;;;;4950554;28;20071;-80
2023/03/20 05:44:12;;;;;;;31.38;12.73;;;9.10;99.90;;;;;;4943979;28;20065;-79
2023/03/20 05:46:37;;;;;;;28.08;11.52;;;9.10;99.90;;;;;;4940613;28;20023;-80
2023/03/20 05:49:03;;;;;;;30.05;11.23;;;9.10;99.90;;;;;;4956428;28;20019;-79
2023/03/20 05:51:29;;;;;;;23.45;10.77;;;9.10;99.90;;;;;;4955112;28;20038;-80
2023/03/20 05:53:57;;;;;;;27.27;10.95;;;9.10;99.90;;;;;;4951877;28;20026;-80
2023/03/20 05:56:22;;;;;;;23.75;10.88;;;9.10;99.90;;;;;;4961489;28;20030;-80
2023/03/20 05:58:48;;;;;;;25.67;11.15;;;9.10;99.90;;;;;;4937290;28;20020;-79
2023/03/20 06:01:17;;;;;;;28.02;11.02;;;9.10;99.90;;;;;;4937704;28;20168;-80
2023/03/20 06:03:42;;;;;;;23.77;10.70;;;9.10;99.90;;;;;;4933749;28;20024;-79
2023/03/20 06:06:08;;;;;;;24.45;10.45;;;9.10;99.90;;;;;;4938778;28;20024;-80
2023/03/20 06:08:35;;;;;;;28.98;11.68;;;9.20;99.90;;;;;;4936651;28;20078;-80
2023/03/20 06:11:03;;;;;;;27.33;11.30;;;9.10;99.90;;;;;;4928512;28;20039;-79
2023/03/20 06:13:29;;;;;;;26.08;10.48;;;9.10;99.90;;;;;;4937023;28;20097;-79
2023/03/20 06:15:55;;;;;;;32.28;11.77;;;9.10;99.90;;;;;;4932385;28;20023;-80
2023/03/20 06:18:21;;;;;;;24.42;11.05;;;9.10;99.90;;;;;;4953090;28;20382;-81
2023/03/20 06:20:54;;;;;;;20.70;9.88;;;9.20;99.90;;;;;;4936263;28;20042;-81
2023/03/20 06:23:20;;;;;;;21.25;9.93;;;9.20;99.90;;;;;;4934107;28;20026;-80
2023/03/20 06:25:46;;;;;;;26.13;11.30;;;9.30;99.90;;;;;;4950909;28;20077;-81
2023/03/20 06:28:11;;;;;;;26.55;10.40;;;9.30;99.90;;;;;;4937185;28;20023;-80
2023/03/20 06:30:40;;;;;;;23.10;10.57;;;9.40;99.90;;;;;;4953196;28;20405;-79
2023/03/20 06:33:06;;;;;;;24.00;10.15;;;9.40;99.90;;;;;;4957121;28;20685;-80
2023/03/20 06:35:32;;;;;;;26.75;10.50;;;9.50;99.90;;;;;;4935892;28;20208;-79
2023/03/20 06:37:58;;;;;;;22.90;10.70;;;9.50;99.90;;;;;;4954536;28;20034;-80
2023/03/20 06:40:26;;;;;;;26.40;9.15;;;9.50;99.90;;;;;;4950770;28;20039;-80
2023/03/20 06:42:52;;;;;;;19.75;10.20;;;9.50;99.90;;;;;;4875782;28;20261;-84
2023/03/20 06:45:18;;;;;;;23.63;9.75;;;9.50;99.90;;;;;;4851231;28;20140;-81
2023/03/20 06:47:47;;;;;;;17.42;8.80;;;9.40;99.90;;;;;;4859589;28;20027;-81
2023/03/20 06:50:13;;;;;;;19.80;8.13;;;9.30;99.90;;;;;;4920417;28;20030;-82
2023/03/20 06:52:39;;;;;;;25.85;8.55;;;9.30;99.90;;;;;;4952818;28;20015;-82
2023/03/20 06:55:06;;;;;;;21.17;9.00;;;9.20;99.90;;;;;;4940641;28;20034;-80
2023/03/20 06:57:32;;;;;;;17.30;8.50;;;9.20;99.90;;;;;;4949285;28;20023;-80
2023/03/20 06:59:58;;;;;;;19.63;8.70;;;9.30;99.90;;;;;;4938263;28;20038;-81
2023/03/20 07:02:24;;;;;;;20.20;7.85;;;9.30;99.90;;;;;;4961576;28;20029;-82
2023/03/20 07:04:52;;;;;;;17.77;7.68;;;9.30;99.90;;;;;;4945849;28;20035;-84
2023/03/20 07:07:18;;;;;;;20.63;8.15;;;9.30;99.90;;;;;;4960746;28;20038;-82
2023/03/20 07:09:44;;;;;;;21.90;8.35;;;9.50;99.90;;;;;;4952274;28;20627;-82
2023/03/20 07:12:13;;;;;;;21.65;8.52;;;9.50;99.90;;;;;;4941727;28;20139;-80
2023/03/20 07:14:40;;;;;;;16.75;7.65;;;9.60;99.90;;;;;;4938998;28;20034;-81
2023/03/20 07:17:07;;;;;;;16.35;7.55;;;9.70;99.90;;;;;;4951444;28;20122;-82
2023/03/20 07:19:34;;;;;;;20.40;8.07;;;9.80;99.90;;;;;;4953976;28;20081;-82
2023/03/20 07:24:29;;;;;;;16.10;7.22;;;9.90;99.90;;;;;;4971069;28;20506;-82
2023/03/20 07:26:55;;;;;;;16.55;7.90;;;9.90;99.90;;;;;;4955934;28;20023;-82
2023/03/20 07:29:20;;;;;;;18.27;8.43;;;10.00;99.90;;;;;;4967249;28;20588;-80
2023/03/20 07:31:46;;;;;;;18.02;7.30;;;10.20;99.90;;;;;;5127971;23;20216;-83
2023/03/20 07:34:12;;;;;;;16.05;7.60;;;10.20;99.90;;;;;;4989861;28;20030;-83
2023/03/20 07:36:37;;;;;;;19.40;7.93;;;10.20;99.90;;;;;;4988400;28;20072;-81
2023/03/20 07:39:04;;;;;;;23.05;7.32;;;10.30;99.90;;;;;;4987834;28;20475;-81
2023/03/20 07:41:30;;;;;;;16.23;6.38;;;10.20;99.90;;;;;;4969984;28;20037;-82
2023/03/20 07:43:55;;;;;;;21.45;7.55;;;10.20;99.90;;;;;;4976538;28;20084;-80
2023/03/20 07:46:21;;;;;;;15.93;6.13;;;10.30;99.90;;;;;;4977955;28;20046;-81
2023/03/20 07:48:47;;;;;;;18.23;6.53;;;10.40;99.90;;;;;;4985763;28;20100;-80
2023/03/20 07:51:12;;;;;;;13.82;5.95;;;10.40;99.90;;;;;;4989767;28;20068;-80
2023/03/20 07:53:38;;;;;;;18.20;7.22;;;10.40;99.90;;;;;;4973402;28;20065;-80
2023/03/20 07:56:06;;;;;;;15.88;6.85;;;10.50;99.90;;;;;;4986891;28;20663;-80
2023/03/20 07:58:32;;;;;;;14.18;6.18;;;10.50;99.90;;;;;;4992945;28;20029;-79
2023/03/20 08:01:01;;;;;;;13.50;6.65;;;10.50;99.90;;;;;;4971689;28;20033;-80
2023/03/20 08:03:27;;;;;;;13.15;5.72;;;10.50;99.90;;;;;;4976862;28;20018;-80
2023/03/20 08:05:54;;;;;;;14.77;6.13;;;10.50;99.90;;;;;;4985984;28;20561;-81
2023/03/20 08:08:19;;;;;;;16.55;6.30;;;10.50;99.90;;;;;;4971892;28;20370;-83
2023/03/20 08:10:45;;;;;;;15.73;6.22;;;10.50;99.90;;;;;;4977946;28;20045;-81
2023/03/20 08:13:11;;;;;;;13.50;5.75;;;10.60;99.90;;;;;;4987753;28;20403;-80
2023/03/20 08:15:36;;;;;;;16.17;5.43;;;10.60;99.90;;;;;;4991465;28;20101;-81
2023/03/20 08:18:02;;;;;;;12.43;5.63;;;10.60;99.90;;;;;;4978355;28;20065;-80
2023/03/20 08:20:29;;;;;;;14.55;6.18;;;10.60;99.90;;;;;;4990246;28;20521;-81
2023/03/20 08:22:55;;;;;;;13.57;5.82;;;10.50;99.90;;;;;;4992634;28;20034;-81
2023/03/20 08:25:21;;;;;;;14.40;5.35;;;10.40;99.90;;;;;;4976346;28;20022;-79
2023/03/20 08:27:50;;;;;;;16.77;5.40;;;10.40;99.90;;;;;;4989925;28;20027;-79
2023/03/20 08:30:15;;;;;;;121.05;42.05;;;10.40;99.90;;;;;;4991712;28;20018;-80
2023/03/20 08:32:41;;;;;;;9.93;4.50;;;10.50;99.90;;;;;;4992651;28;20040;-80
2023/03/20 08:35:08;;;;;;;12.52;4.63;;;10.50;99.90;;;;;;4970361;28;20035;-80
2023/03/20 08:37:37;;;;;;;13.13;5.15;;;10.60;99.90;;;;;;4988134;28;20053;-81
2023/03/20 08:40:04;;;;;;;12.75;7.05;;;10.80;99.90;;;;;;4971053;28;20069;-82
2023/03/20 08:42:30;;;;;;;14.57;5.93;;;10.70;99.90;;;;;;4989177;28;20030;-82
2023/03/20 08:44:56;;;;;;;9.50;4.47;;;10.70;99.90;;;;;;4988109;28;20082;-81
2023/03/20 08:47:25;;;;;;;6.32;4.13;;;10.70;99.90;;;;;;4968856;28;20026;-81
2023/03/20 08:49:50;;;;;;;13.32;4.60;;;10.60;99.90;;;;;;4970156;28;20023;-82
2023/03/20 08:52:16;;;;;;;13.75;4.70;;;10.60;99.90;;;;;;4976398;28;20030;-81
2023/03/20 08:54:41;;;;;;;10.45;4.25;;;10.50;99.90;;;;;;4992101;28;20015;-82
2023/03/20 08:57:07;;;;;;;16.52;4.57;;;10.60;99.90;;;;;;4987514;28;20029;-83
2023/03/20 08:59:33;;;;;;;7.93;3.00;;;10.60;99.90;;;;;;4972316;28;20026;-83
2023/03/20 09:01:58;;;;;;;15.77;4.50;;;10.60;99.90;;;;;;4987311;28;20046;-83
2023/03/20 09:04:26;;;;;;;9.27;3.53;;;10.60;99.90;;;;;;4986396;28;20066;-82
2023/03/20 09:06:52;;;;;;;11.10;3.95;;;10.60;99.90;;;;;;4977405;28;20158;-82
2023/03/20 09:09:20;;;;;;;8.05;4.13;;;10.70;99.90;;;;;;4995951;28;20094;-83
2023/03/20 09:11:46;;;;;;;11.88;3.60;;;10.80;99.90;;;;;;4999826;28;20561;-83
2023/03/20 09:14:11;;;;;;;14.50;3.10;;;10.80;99.90;;;;;;4979289;28;20133;-82
2023/03/20 09:16:37;;;;;;;24.27;7.18;;;10.70;99.90;;;;;;4995967;28;20065;-78
2023/03/20 09:19:05;;;;;;;8.10;3.65;;;10.80;99.90;;;;;;4995678;28;20027;-83
2023/03/20 09:21:31;;;;;;;5.32;3.30;;;10.80;99.90;;;;;;4994101;28;20084;-80
2023/03/20 09:23:56;;;;;;;7.43;3.08;;;10.90;99.90;;;;;;4977528;28;20022;-83
2023/03/20 09:26:22;;;;;;;5.32;2.92;;;11.00;99.90;;;;;;5000605;28;20470;-80
2023/03/20 09:28:48;;;;;;;9.25;2.83;;;11.10;99.90;;;;;;4976299;28;20018;-82
2023/03/20 09:31:14;;;;;;;10.48;3.50;;;11.00;99.90;;;;;;4973707;28;20025;-82
2023/03/20 09:33:41;;;;;;;12.98;3.28;;;11.10;99.90;;;;;;5005646;28;20505;-80
2023/03/20 09:36:10;;;;;;;6.68;2.80;;;11.20;99.90;;;;;;5000098;28;20037;-80
2023/03/20 09:38:36;;;;;;;5.00;2.83;;;11.20;99.90;;;;;;4978892;28;20125;-80
2023/03/20 09:41:06;;;;;;;6.50;2.72;;;11.30;99.90;;;;;;4974305;28;20414;-83
2023/03/20 09:43:42;;;;;;;22.58;6.20;;;11.30;99.90;;;;;;4975812;28;20088;-77
2023/03/20 09:46:29;;;;;;;8.50;3.20;;;11.30;99.90;;;;;;4970532;28;20037;-80
2023/03/20 09:49:13;;;;;;;7.30;2.53;;;11.40;99.90;;;;;;4992173;28;20045;-81
2023/03/20 09:51:50;;;;;;;5.07;2.65;;;11.50;99.90;;;;;;4992573;28;20076;-81
2023/03/20 09:54:40;;;;;;;8.43;3.10;;;11.40;99.90;;;;;;4991172;28;20494;-82
2023/03/20 09:57:25;;;;;;;7.60;2.75;;;11.30;99.90;;;;;;4973015;28;20115;-82
2023/03/20 09:59:57;;;;;;;4.35;2.22;;;11.30;99.90;;;;;;4981522;28;20030;-82
2023/03/20 10:02:35;;;;;;;6.65;2.83;;;11.20;99.90;;;;;;4994106;28;20116;-82
2023/03/20 10:05:08;;;;;;;8.27;2.67;;;11.30;99.90;;;;;;4983618;28;20036;-83
2023/03/20 10:07:34;;;;;;;7.30;2.60;;;11.30;99.90;;;;;;4974534;28;20087;-80
2023/03/20 10:10:02;;;;;;;9.43;2.53;;;11.30;99.90;;;;;;4992309;28;20017;-82
2023/03/20 10:12:56;;;;;;;4.20;2.25;;;11.30;99.90;;;;;;4994711;28;20050;-82
2023/03/20 10:15:45;;;;;;;20.05;5.18;;;11.50;99.90;;;;;;4980198;28;20624;-82
2023/03/20 10:18:32;;;;;;;6.30;3.03;;;11.50;99.90;;;;;;4989827;28;20034;-82
2023/03/20 10:21:17;;;;;;;6.00;2.50;;;11.40;99.90;;;;;;4972806;28;20138;-80
2023/03/20 10:23:49;;;;;;;12.15;3.33;;;11.40;99.90;;;;;;4990971;28;20089;-83
2023/03/20 10:26:21;;;;;;;9.60;3.30;;;11.50;99.90;;;;;;4990713;28;20128;-83
2023/03/20 10:29:04;;;;;;;6.88;3.35;;;11.60;99.90;;;;;;4992760;28;20028;-83
2023/03/20 10:31:43;;;;;;;;;;;11.60;99.90;;;;;;4991363;28;20246;-80
2023/03/20 10:34:47;;;;;;;10.13;3.47;;;11.50;99.90;;;;;;4988937;28;19955;-79
2023/03/20 10:37:21;;;;;;;6.15;3.13;;;11.50;99.90;;;;;;4973696;28;20448;-79
2023/03/20 10:40:08;;;;;;;11.02;3.10;;;11.50;99.90;;;;;;4991451;28;20110;-79
2023/03/20 10:42:39;;;;;;;9.30;3.25;;;11.60;99.90;;;;;;4975630;28;20038;-79
2023/03/20 10:45:17;;;;;;;8.07;3.47;;;11.70;99.90;;;;;;4984152;28;20072;-81
2023/03/20 10:47:45;;;;;;;9.05;3.03;;;11.70;99.90;;;;;;4991409;28;20486;-80
2023/03/20 10:50:30;;;;;;;10.63;3.85;;;11.60;99.90;;;;;;4990367;28;20018;-80
2023/03/20 10:53:01;;;;;;;9.05;3.22;;;11.90;99.90;;;;;;4970838;28;20060;-80
2023/03/20 10:55:31;;;;;;;7.45;3.35;;;12.20;99.90;;;;;;4980499;28;20026;-81
2023/03/20 10:58:04;;;;;;;8.07;2.78;;;12.10;99.90;;;;;;4993910;28;20069;-79
2023/03/20 11:00:30;;;;;;;8.30;3.30;;;11.90;99.90;;;;;;4989907;28;20364;-80
2023/03/20 11:02:55;;;;;;;4.97;2.88;;;12.10;99.90;;;;;;4992875;28;20351;-79
2023/03/20 11:05:35;;;;;;;6.68;3.25;;;11.90;99.90;;;;;;4972800;28;20217;-81
2023/03/20 11:08:07;;;;;;;11.73;3.25;;;12.00;99.90;;;;;;4985624;28;20407;-80
2023/03/20 11:10:35;;;;;;;6.78;3.10;;;12.10;99.90;;;;;;4986622;28;20390;-80
2023/03/20 11:13:34;;;;;;;9.30;3.08;;;12.10;99.90;;;;;;4987319;28;20581;-81
2023/03/20 11:16:20;;;;;;;10.90;3.53;;;11.90;99.90;;;;;;4972114;28;20724;-80
2023/03/20 11:18:48;;;;;;;13.65;3.70;;;11.90;99.90;;;;;;4986585;28;20040;-81
2023/03/20 11:21:27;;;;;;;10.20;3.70;;;11.90;99.90;;;;;;4989331;28;20030;-81
2023/03/20 11:23:54;;;;;;;10.77;4.07;;;11.90;99.90;;;;;;4973415;28;20034;-80
2023/03/20 11:26:34;;;;;;;9.52;4.15;;;11.40;99.90;;;;;;4990006;28;20545;-79
2023/03/20 11:29:00;;;;;;;12.77;4.15;;;11.40;99.90;;;;;;4984898;28;20034;-79
2023/03/20 11:31:35;;;;;;;14.98;4.43;;;11.20;99.90;;;;;;4984067;28;20026;-80
2023/03/20 11:34:10;;;;;;;11.25;4.13;;;11.00;99.90;;;;;;4990495;28;20080;-81
2023/03/20 11:36:40;;;;;;;13.95;4.32;;;10.90;99.90;;;;;;4991746;28;20026;-80
2023/03/20 11:39:21;;;;;;;11.20;5.13;;;10.90;99.90;;;;;;4985741;28;20117;-79
2023/03/20 11:41:51;;;;;;;10.30;5.05;;;10.90;99.90;;;;;;4990333;28;20026;-79
2023/03/20 11:44:28;;;;;;;8.32;4.07;;;10.80;99.90;;;;;;4974427;28;20030;-81
2023/03/20 11:47:04;;;;;;;20.20;5.28;;;10.60;99.90;;;;;;4993208;28;20223;-83
2023/03/20 11:49:32;;;;;;;9.32;3.90;;;10.60;99.90;;;;;;4994861;28;20442;-80
2023/03/20 11:52:10;;;;;;;14.48;4.70;;;10.60;99.90;;;;;;4974727;28;20108;-80
2023/03/20 11:54:37;;;;;;;12.00;4.55;;;10.70;99.90;;;;;;4991253;28;20065;-80
2023/03/20 11:57:02;;;;;;;11.10;3.88;;;10.80;99.90;;;;;;4989974;28;20037;-82
2023/03/20 11:59:36;;;;;;;11.52;4.93;;;10.80;99.90;;;;;;4978831;28;20443;-81
2023/03/20 12:02:18;;;;;;;18.05;4.68;;;10.80;99.90;;;;;;4973116;28;20044;-82
2023/03/20 12:04:46;;;;;;;17.02;3.90;;;10.80;99.90;;;;;;4989241;28;20120;-80
2023/03/20 12:07:34;;;;;;;7.82;3.60;;;10.90;99.90;;;;;;4976103;28;20092;-82
2023/03/20 12:10:09;;;;;;;16.65;3.75;;;10.80;99.90;;;;;;4972960;28;20109;-80
2023/03/20 12:12:41;;;;;;;8.15;3.22;;;10.80;99.90;;;;;;4985572;28;20026;-82
2023/03/20 12:15:12;;;;;;;9.45;3.33;;;10.80;99.90;;;;;;4989875;28;20429;-80
2023/03/20 12:17:58;;;;;;;11.00;3.63;;;10.80;99.90;;;;;;4979661;28;20470;-82
2023/03/20 12:20:29;;;;;;;8.35;3.22;;;10.90;99.90;;;;;;4971863;28;20030;-79
2023/03/20 12:23:05;;;;;;;8.15;2.83;;;10.80;99.90;;;;;;4974328;28;20153;-83
2023/03/20 12:25:55;;;;;;;13.18;3.92;;;10.70;99.90;;;;;;4987901;28;20321;-79
2023/03/20 12:28:36;;;;;;;6.47;3.05;;;10.60;99.90;;;;;;4992287;28;20030;-79
2023/03/20 12:31:19;;;;;;;8.55;3.33;;;10.20;99.90;;;;;;4993353;28;20057;-79
2023/03/20 12:34:10;;;;;;;12.25;2.90;;;9.90;99.90;;;;;;4986062;28;20026;-82
2023/03/20 12:36:45;;;;;;;9.93;2.95;;;9.80;99.90;;;;;;4951195;28;20113;-82
2023/03/20 12:39:18;;;;;;;8.25;2.80;;;9.80;99.90;;;;;;4989500;28;20076;-81
2023/03/20 12:42:06;;;;;;;8.13;3.22;;;9.90;99.90;;;;;;4980802;28;20466;-80
2023/03/20 12:44:40;;;;;;;5.75;2.03;;;9.90;99.90;;;;;;4995566;28;20018;-84
2023/03/20 12:47:40;;;;;;;6.78;2.88;;;9.90;99.90;;;;;;4994214;28;20030;-83
2023/03/20 12:50:16;;;;;;;5.28;2.65;;;9.90;99.90;;;;;;4993546;28;20411;-82
2023/03/20 12:53:10;;;;;;;15.18;2.95;;;10.00;99.90;;;;;;4993223;28;20442;-81
2023/03/20 12:55:50;;;;;;;4.15;2.20;;;10.20;99.90;;;;;;4992330;28;20026;-81
2023/03/20 12:58:53;;;;;;;6.07;2.45;;;10.10;99.90;;;;;;4982223;28;20038;-79
2023/03/20 13:01:25;;;;;;;5.35;2.53;;;10.10;99.90;;;;;;4977990;28;20110;-78
2023/03/20 13:03:59;;;;;;;9.52;2.65;;;10.20;99.90;;;;;;4991524;28;20030;-81
2023/03/20 13:06:25;;;;;;;6.65;2.70;;;10.30;99.90;;;;;;4983158;28;20075;-80